Sea Thames — V2BV1 — position and weather

sailwx.info

Track history (hours):
 
Tides and Currents Weather Stations Pressure Air Temp Water Temp Dewpoint Dewpoint Depression Visibility Wind Speed Wind Dir Waves Ship Positions

Sea Thames

Last reported at 2014-Dec-21 15:23 UTC. Time now 2014-Dec-21 16:37 UTC.
Position N 52°21' W 005°53'.

Length 87 m; draft 3.5 m.

Type: Cargo ship. MMSI: 304933000.

Date/timePositionNaut miles runAvg speedWind from/ knotsBaromVisibWave heightAir tempDewpointWater temp
2014-Dec-21 15:23N 52°21' W 005°53'23 7.1
2014-Dec-21 12:10N 52°01' W 006°10'257 6.5
2014-Dec-19 20:30N 50°36' E 000°18'7 7.2
2014-Dec-19 19:33N 50°38' E 000°28'7 7.1
2014-Dec-19 18:33N 50°41' E 000°38'8 7.7
2014-Dec-19 17:28N 50°45' E 000°49'1910.1
2014-Dec-19 15:33N 50°57' E 001°13'1110.7
2014-Dec-19 14:33N 51°04' E 001°26'9 9.5
2014-Dec-19 13:33N 51°10' E 001°38'8 8.1
2014-Dec-19 12:34N 51°16' E 001°47'8 7.6
2014-Dec-19 11:33N 51°23' E 001°51'10 7.1
2014-Dec-19 10:08N 51°31' E 002°02'69 6.5
2014-Dec-18 23:30N 52°04' E 003°40'5 5.1
2014-Dec-18 22:31N 52°04' E 003°49'5 5.5
2014-Dec-18 21:33N 52°03' E 003°57'9 8.5
2014-Dec-18 20:33N 51°58' E 004°08'8 7.9
2014-Dec-18 19:32N 51°54' E 004°19'0 0.0
2014-Dec-18 18:26N 51°54' E 004°19'0 0.0
2014-Dec-18 17:32N 51°54' E 004°19'0 0.0
2014-Dec-18 16:32N 51°54' E 004°19'0 0.0
2014-Dec-18 15:32N 51°54' E 004°19'0 0.0
2014-Dec-18 14:32N 51°54' E 004°19'0 0.0
2014-Dec-18 13:29N 51°54' E 004°19'0 0.0
2014-Dec-18 12:32N 51°54' E 004°19'0 0.0
2014-Dec-18 11:32N 51°54' E 004°19'0 0.0
2014-Dec-18 10:29N 51°54' E 004°19'0 0.0
2014-Dec-18 09:29N 51°54' E 004°19'0 0.0
2014-Dec-18 08:32N 51°54' E 004°19'0 0.0
2014-Dec-18 07:29N 51°54' E 004°19'0 0.0
2014-Dec-18 06:32N 51°54' E 004°19'0 0.0
2014-Dec-18 05:23N 51°54' E 004°19'0 0.0
2014-Dec-18 04:29N 51°54' E 004°19'0 0.0
2014-Dec-18 03:29N 51°54' E 004°19'0 0.0
2014-Dec-18 02:29N 51°54' E 004°19'0 0.0
2014-Dec-18 01:32N 51°54' E 004°19'0 0.0
2014-Dec-18 00:29N 51°54' E 004°19'0 0.0
2014-Dec-17 23:32N 51°54' E 004°19'0 0.0
2014-Dec-17 22:32N 51°54' E 004°19'0 0.0
2014-Dec-17 21:32N 51°54' E 004°19'0 0.0
2014-Dec-17 20:32N 51°54' E 004°19'0 0.1
2014-Dec-17 19:32N 51°54' E 004°19'0 0.0
2014-Dec-17 18:32N 51°54' E 004°19'0 0.0
2014-Dec-17 17:32N 51°54' E 004°19'0 0.0
2014-Dec-17 16:29N 51°54' E 004°19'0 0.0
2014-Dec-17 15:32N 51°54' E 004°19'0 0.0
2014-Dec-17 14:29N 51°54' E 004°19'0 0.0
2014-Dec-17 13:32N 51°54' E 004°19'0 0.0
2014-Dec-17 12:32N 51°54' E 004°19'0 0.0
2014-Dec-17 11:32N 51°54' E 004°19'0 0.0
2014-Dec-17 10:29N 51°54' E 004°19'0 0.0
2014-Dec-17 09:26N 51°54' E 004°19'0 0.0
2014-Dec-17 08:32N 51°54' E 004°19'0 0.0
2014-Dec-17 07:32N 51°54' E 004°19'0 0.0
2014-Dec-17 06:32N 51°54' E 004°19'0 0.0
2014-Dec-17 05:32N 51°54' E 004°19'0 0.0
2014-Dec-17 04:26N 51°54' E 004°19'0 0.0
2014-Dec-17 03:32N 51°54' E 004°19'0 0.0
2014-Dec-17 02:29N 51°54' E 004°19'0 0.0
2014-Dec-17 01:32N 51°54' E 004°19'0 0.0
2014-Dec-17 00:26N 51°54' E 004°19'0 0.0
2014-Dec-16 23:29N 51°54' E 004°19'0 0.0
2014-Dec-16 22:32N 51°54' E 004°19'0 0.0
2014-Dec-16 21:29N 51°54' E 004°19'0 0.0
2014-Dec-16 20:32N 51°54' E 004°19'0 0.0
2014-Dec-16 19:32N 51°54' E 004°19'0 0.0
2014-Dec-16 18:32N 51°54' E 004°19'0 0.1
2014-Dec-16 17:23N 51°54' E 004°19'0 0.0
2014-Dec-16 16:32N 51°54' E 004°19'0 0.0
2014-Dec-16 15:23N 51°54' E 004°19'0 0.0
2014-Dec-16 14:26N 51°54' E 004°19'0 0.0
2014-Dec-16 13:32N 51°54' E 004°19'0 0.0
2014-Dec-16 12:32N 51°54' E 004°19'0 0.0
2014-Dec-16 11:17N 51°54' E 004°19'1 0.8
2014-Dec-16 10:33N 51°54' E 004°18'1 0.7
2014-Dec-16 09:30N 51°54' E 004°17'0 0.0
2014-Dec-16 08:32N 51°54' E 004°17'0 0.0
2014-Dec-16 07:21N 51°54' E 004°17'0 0.0
2014-Dec-16 06:33N 51°54' E 004°17'0 0.0
2014-Dec-16 04:24N 51°54' E 004°17'0 0.0
2014-Dec-16 01:09N 51°54' E 004°17'0 0.0
2014-Dec-15 23:31N 51°54' E 004°17'0 0.0
2014-Dec-15 22:33N 51°54' E 004°17'0 0.0
2014-Dec-15 21:33N 51°54' E 004°17'0 0.0
2014-Dec-15 20:18N 51°54' E 004°17'0 0.0
2014-Dec-15 19:29N 51°54' E 004°17'0 0.0
2014-Dec-15 18:33N 51°54' E 004°17'0 0.0
2014-Dec-15 17:32N 51°54' E 004°17'0 0.0
2014-Dec-15 16:30N 51°54' E 004°17'0 0.0
2014-Dec-15 15:33N 51°54' E 004°17'5 5.4
2014-Dec-15 14:33N 51°57' E 004°10'6 6.2
2014-Dec-15 13:33N 51°60' E 004°01'61 8.6
2014-Dec-15 06:30N 51°39' E 002°29'9 9.2
2014-Dec-15 05:33N 51°32' E 002°20'9 8.7
2014-Dec-15 04:34N 51°25' E 002°13'10 8.4
2014-Dec-15 03:21N 51°16' E 002°06'6 7.8
2014-Dec-15 02:31N 51°11' E 001°59'8 8.0
2014-Dec-15 01:34N 51°07' E 001°49'8 7.7
2014-Dec-15 00:33N 51°01' E 001°40'  
Track history (hours):
 
Tides and Currents Weather Stations Pressure Air Temp Water Temp Dewpoint Dewpoint Depression Visibility Wind Speed Wind Dir Waves Ship Positions

Sea Thames

Last reported at 2014-Dec-21 15:23 UTC. Time now 2014-Dec-21 16:37 UTC.
Position N 52°21' W 005°53'.

Length 87 m; draft 3.5 m.

Type: Cargo ship. MMSI: 304933000.

Date/timePositionNaut miles runAvg speedWind from/ knotsBaromVisibWave heightAir tempDewpointWater temp
2014-Dec-21 15:23N 52°21' W 005°53'23 7.1
2014-Dec-21 12:10N 52°01' W 006°10'257 6.5
2014-Dec-19 20:30N 50°36' E 000°18'7 7.2
2014-Dec-19 19:33N 50°38' E 000°28'7 7.1
2014-Dec-19 18:33N 50°41' E 000°38'8 7.7
2014-Dec-19 17:28N 50°45' E 000°49'1910.1
2014-Dec-19 15:33N 50°57' E 001°13'1110.7
2014-Dec-19 14:33N 51°04' E 001°26'9 9.5
2014-Dec-19 13:33N 51°10' E 001°38'8 8.1
2014-Dec-19 12:34N 51°16' E 001°47'8 7.6
2014-Dec-19 11:33N 51°23' E 001°51'10 7.1
2014-Dec-19 10:08N 51°31' E 002°02'69 6.5
2014-Dec-18 23:30N 52°04' E 003°40'5 5.1
2014-Dec-18 22:31N 52°04' E 003°49'5 5.5
2014-Dec-18 21:33N 52°03' E 003°57'9 8.5
2014-Dec-18 20:33N 51°58' E 004°08'8 7.9
2014-Dec-18 19:32N 51°54' E 004°19'0 0.0
2014-Dec-18 18:26N 51°54' E 004°19'0 0.0
2014-Dec-18 17:32N 51°54' E 004°19'0 0.0
2014-Dec-18 16:32N 51°54' E 004°19'0 0.0
2014-Dec-18 15:32N 51°54' E 004°19'0 0.0
2014-Dec-18 14:32N 51°54' E 004°19'0 0.0
2014-Dec-18 13:29N 51°54' E 004°19'0 0.0
2014-Dec-18 12:32N 51°54' E 004°19'0 0.0
2014-Dec-18 11:32N 51°54' E 004°19'0 0.0
2014-Dec-18 10:29N 51°54' E 004°19'0 0.0
2014-Dec-18 09:29N 51°54' E 004°19'0 0.0
2014-Dec-18 08:32N 51°54' E 004°19'0 0.0
2014-Dec-18 07:29N 51°54' E 004°19'0 0.0
2014-Dec-18 06:32N 51°54' E 004°19'0 0.0
2014-Dec-18 05:23N 51°54' E 004°19'0 0.0
2014-Dec-18 04:29N 51°54' E 004°19'0 0.0
2014-Dec-18 03:29N 51°54' E 004°19'0 0.0
2014-Dec-18 02:29N 51°54' E 004°19'0 0.0
2014-Dec-18 01:32N 51°54' E 004°19'0 0.0
2014-Dec-18 00:29N 51°54' E 004°19'0 0.0
2014-Dec-17 23:32N 51°54' E 004°19'0 0.0
2014-Dec-17 22:32N 51°54' E 004°19'0 0.0
2014-Dec-17 21:32N 51°54' E 004°19'0 0.0
2014-Dec-17 20:32N 51°54' E 004°19'0 0.1
2014-Dec-17 19:32N 51°54' E 004°19'0 0.0
2014-Dec-17 18:32N 51°54' E 004°19'0 0.0
2014-Dec-17 17:32N 51°54' E 004°19'0 0.0
2014-Dec-17 16:29N 51°54' E 004°19'0 0.0
2014-Dec-17 15:32N 51°54' E 004°19'0 0.0
2014-Dec-17 14:29N 51°54' E 004°19'0 0.0
2014-Dec-17 13:32N 51°54' E 004°19'0 0.0
2014-Dec-17 12:32N 51°54' E 004°19'0 0.0
2014-Dec-17 11:32N 51°54' E 004°19'0 0.0
2014-Dec-17 10:29N 51°54' E 004°19'0 0.0
2014-Dec-17 09:26N 51°54' E 004°19'0 0.0
2014-Dec-17 08:32N 51°54' E 004°19'0 0.0
2014-Dec-17 07:32N 51°54' E 004°19'0 0.0
2014-Dec-17 06:32N 51°54' E 004°19'0 0.0
2014-Dec-17 05:32N 51°54' E 004°19'0 0.0
2014-Dec-17 04:26N 51°54' E 004°19'0 0.0
2014-Dec-17 03:32N 51°54' E 004°19'0 0.0
2014-Dec-17 02:29N 51°54' E 004°19'0 0.0
2014-Dec-17 01:32N 51°54' E 004°19'0 0.0
2014-Dec-17 00:26N 51°54' E 004°19'0 0.0
2014-Dec-16 23:29N 51°54' E 004°19'0 0.0
2014-Dec-16 22:32N 51°54' E 004°19'0 0.0
2014-Dec-16 21:29N 51°54' E 004°19'0 0.0
2014-Dec-16 20:32N 51°54' E 004°19'0 0.0
2014-Dec-16 19:32N 51°54' E 004°19'0 0.0
2014-Dec-16 18:32N 51°54' E 004°19'0 0.1
2014-Dec-16 17:23N 51°54' E 004°19'0 0.0
2014-Dec-16 16:32N 51°54' E 004°19'0 0.0
2014-Dec-16 15:23N 51°54' E 004°19'0 0.0
2014-Dec-16 14:26N 51°54' E 004°19'0 0.0
2014-Dec-16 13:32N 51°54' E 004°19'0 0.0
2014-Dec-16 12:32N 51°54' E 004°19'0 0.0
2014-Dec-16 11:17N 51°54' E 004°19'1 0.8
2014-Dec-16 10:33N 51°54' E 004°18'1 0.7
2014-Dec-16 09:30N 51°54' E 004°17'0 0.0
2014-Dec-16 08:32N 51°54' E 004°17'0 0.0
2014-Dec-16 07:21N 51°54' E 004°17'0 0.0
2014-Dec-16 06:33N 51°54' E 004°17'0 0.0
2014-Dec-16 04:24N 51°54' E 004°17'0 0.0
2014-Dec-16 01:09N 51°54' E 004°17'0 0.0
2014-Dec-15 23:31N 51°54' E 004°17'0 0.0
2014-Dec-15 22:33N 51°54' E 004°17'0 0.0
2014-Dec-15 21:33N 51°54' E 004°17'0 0.0
2014-Dec-15 20:18N 51°54' E 004°17'0 0.0
2014-Dec-15 19:29N 51°54' E 004°17'0 0.0
2014-Dec-15 18:33N 51°54' E 004°17'0 0.0
2014-Dec-15 17:32N 51°54' E 004°17'0 0.0
2014-Dec-15 16:30N 51°54' E 004°17'0 0.0
2014-Dec-15 15:33N 51°54' E 004°17'5 5.4
2014-Dec-15 14:33N 51°57' E 004°10'6 6.2
2014-Dec-15 13:33N 51°60' E 004°01'61 8.6
2014-Dec-15 06:30N 51°39' E 002°29'9 9.2
2014-Dec-15 05:33N 51°32' E 002°20'9 8.7
2014-Dec-15 04:34N 51°25' E 002°13'10 8.4
2014-Dec-15 03:21N 51°16' E 002°06'6 7.8
2014-Dec-15 02:31N 51°11' E 001°59'8 8.0
2014-Dec-15 01:34N 51°07' E 001°49'8 7.7
2014-Dec-15 00:33N 51°01' E 001°40'  

Dump ship's entire track history